Time;durP1;ratioP1;P1;durP2;ratioP2;P2;SDS_P1;SDS_P2;PMS_P1;PMS_P2;Temp;Humidity;BMP_temperature;BMP_pressure;BME280_temperature;BME280_humidity;BME280_pressure;Samples;Min_cycle;Max_cycle;Signal;HPM_P1;HPM_P2
2021/01/21 00:00:53;;;;;;;6.80;3.90;;;11.30;99.90;;;;;;4938537;29;20405;-75
2021/01/21 00:03:19;;;;;;;4.73;4.23;;;11.30;99.90;;;;;;4937386;29;20459;-74
2021/01/21 00:05:45;;;;;;;5.13;4.10;;;11.30;99.90;;;;;;4937333;29;20405;-74
2021/01/21 00:08:11;;;;;;;4.90;3.80;;;11.30;99.90;;;;;;4937229;29;20440;-74
2021/01/21 00:10:37;;;;;;;5.43;3.97;;;11.30;99.90;;;;;;4937353;29;20794;-75
2021/01/21 00:13:03;;;;;;;4.43;4.00;;;11.30;99.90;;;;;;4938441;29;20424;-76
2021/01/21 00:15:29;;;;;;;4.87;3.70;;;11.30;99.90;;;;;;4937372;29;20448;-74
2021/01/21 00:17:55;;;;;;;5.13;4.07;;;11.30;99.90;;;;;;4937253;29;20993;-75
2021/01/21 00:20:23;;;;;;;5.83;3.53;;;11.30;99.90;;;;;;4938587;29;20405;-75
2021/01/21 00:22:49;;;;;;;5.80;4.40;;;11.30;99.90;;;;;;4937424;29;20482;-75
2021/01/21 00:25:16;;;;;;;3.93;3.60;;;11.20;99.90;;;;;;4937362;29;20500;-75
2021/01/21 00:27:42;;;;;;;3.87;3.53;;;11.30;99.90;;;;;;4921117;29;20425;-75
2021/01/21 00:30:09;;;;;;;3.63;3.33;;;11.30;99.90;;;;;;4937274;29;20421;-75
2021/01/21 00:32:36;;;;;;;3.87;3.43;;;11.20;99.90;;;;;;4905285;29;20424;-74
2021/01/21 00:35:02;;;;;;;4.03;3.80;;;11.20;99.90;;;;;;4938053;29;20456;-75
2021/01/21 00:37:28;;;;;;;3.83;3.53;;;11.20;99.90;;;;;;4937751;29;20547;-75
2021/01/21 00:39:54;;;;;;;4.00;3.70;;;11.10;99.90;;;;;;4936549;29;20913;-75
2021/01/21 00:42:22;;;;;;;4.47;4.07;;;11.20;99.90;;;;;;4905448;29;20421;-74
2021/01/21 00:44:48;;;;;;;4.23;3.80;;;11.20;99.90;;;;;;4937889;29;20423;-75
2021/01/21 00:47:17;;;;;;;3.97;3.57;;;11.10;99.90;;;;;;4936965;29;20428;-75
2021/01/21 00:49:43;;;;;;;4.80;3.90;;;11.10;99.90;;;;;;4921083;29;20535;-75
2021/01/21 00:52:09;;;;;;;4.00;3.57;;;11.10;99.90;;;;;;4932005;29;20515;-75
2021/01/21 00:54:35;;;;;;;3.53;3.33;;;11.10;99.90;;;;;;4955907;29;20459;-75
2021/01/21 00:57:02;;;;;;;3.70;3.43;;;11.20;99.90;;;;;;4955810;29;20427;-74
2021/01/21 00:59:28;;;;;;;8.60;4.20;;;11.20;99.90;;;;;;4955546;29;20439;-74
2021/01/21 01:01:55;;;;;;;4.60;4.10;;;11.20;99.90;;;;;;4956965;28;20404;-75
2021/01/21 01:04:21;;;;;;;4.37;3.97;;;11.10;99.90;;;;;;4955476;29;20436;-75
2021/01/21 01:06:48;;;;;;;4.30;3.90;;;11.20;99.90;;;;;;4955464;29;20404;-74
2021/01/21 01:09:14;;;;;;;4.13;3.50;;;11.20;99.90;;;;;;4955297;29;20474;-74
2021/01/21 01:11:41;;;;;;;8.03;3.60;;;11.20;99.90;;;;;;4956438;29;20400;-74
2021/01/21 01:14:07;;;;;;;4.37;3.83;;;11.20;99.90;;;;;;4955499;29;20774;-75
2021/01/21 01:16:34;;;;;;;7.07;4.10;;;11.20;99.90;;;;;;4939255;29;20438;-75
2021/01/21 01:19:04;;;;;;;3.70;3.50;;;11.30;99.90;;;;;;4955518;29;20447;-76
2021/01/21 01:21:33;;;;;;;4.47;3.80;;;11.30;99.90;;;;;;4939392;28;20447;-75
2021/01/21 01:23:59;;;;;;;4.10;3.80;;;11.30;99.90;;;;;;4956295;29;20411;-73
2021/01/21 01:26:26;;;;;;;4.27;3.90;;;11.30;99.90;;;;;;4955066;29;20510;-74
2021/01/21 01:29:00;;;;;;;9.10;3.60;;;11.30;99.90;;;;;;4954920;29;20493;-75
2021/01/21 01:31:26;;;;;;;5.40;4.07;;;11.30;99.90;;;;;;4939247;29;20478;-75
2021/01/21 01:33:53;;;;;;;4.50;3.80;;;11.30;99.90;;;;;;4955045;29;20412;-74
2021/01/21 01:36:20;;;;;;;3.80;3.60;;;11.30;99.90;;;;;;4954897;29;20458;-77
2021/01/21 01:38:47;;;;;;;4.50;4.10;;;11.30;99.90;;;;;;4954555;29;20463;-75
2021/01/21 01:41:31;;;;;;;4.37;3.97;;;11.30;99.90;;;;;;4955070;28;21091;-75
2021/01/21 01:43:57;;;;;;;4.50;3.87;;;11.20;99.90;;;;;;4939003;29;20427;-74
2021/01/21 01:46:27;;;;;;;4.50;4.10;;;11.20;99.90;;;;;;4938860;29;20418;-76
2021/01/21 01:48:58;;;;;;;4.07;3.77;;;11.10;99.90;;;;;;4954575;29;20479;-76
2021/01/21 01:51:32;;;;;;;4.00;3.70;;;11.10;99.90;;;;;;4939650;29;20885;-75
2021/01/21 01:53:59;;;;;;;3.90;3.60;;;11.10;99.90;;;;;;4954575;29;20416;-74
2021/01/21 01:56:30;;;;;;;3.70;3.40;;;11.10;99.90;;;;;;4954517;29;20455;-76
2021/01/21 01:59:07;;;;;;;4.33;4.03;;;11.10;99.90;;;;;;4954482;29;20530;-74
2021/01/21 02:01:48;;;;;;;4.23;4.00;;;11.10;99.90;;;;;;4954746;29;20490;-74
2021/01/21 02:04:20;;;;;;;3.93;3.63;;;11.10;99.90;;;;;;4954256;29;20411;-75
2021/01/21 02:07:27;;;;;;;6.07;3.97;;;11.10;99.90;;;;;;4946899;29;20427;-75
2021/01/21 02:10:03;;;;;;;4.63;4.13;;;11.10;99.90;;;;;;4954470;28;20474;-74
2021/01/21 02:13:08;;;;;;;4.23;3.83;;;11.20;99.90;;;;;;4938270;29;20431;-74
2021/01/21 02:15:56;;;;;;;4.83;4.17;;;11.20;99.90;;;;;;4954195;29;20491;-74
2021/01/21 02:18:48;;;;;;;3.97;3.70;;;11.20;99.90;;;;;;4955163;28;20443;-75
2021/01/21 02:21:31;;;;;;;4.50;4.07;;;11.30;99.90;;;;;;4954154;29;20464;-76
2021/01/21 02:24:25;;;;;;;7.77;4.17;;;11.30;99.90;;;;;;4954545;28;20913;-75
2021/01/21 02:27:00;;;;;;;3.70;3.37;;;11.30;99.90;;;;;;4954432;29;20400;-75
2021/01/21 02:29:33;;;;;;;4.20;3.77;;;11.30;99.90;;;;;;4955505;28;20860;-75
2021/01/21 02:32:08;;;;;;;4.50;4.10;;;11.40;99.90;;;;;;4965057;28;20410;-76
2021/01/21 02:35:02;;;;;;;4.60;3.60;;;11.40;99.90;;;;;;4972300;28;20446;-74
2021/01/21 02:37:33;;;;;;;4.37;4.07;;;11.60;99.90;;;;;;4957174;28;20457;-74
2021/01/21 02:40:05;;;;;;;4.60;4.03;;;11.60;99.90;;;;;;4989369;28;20455;-74
2021/01/21 02:42:55;;;;;;;5.73;4.13;;;11.60;99.90;;;;;;4970502;28;20546;-74
2021/01/21 02:45:24;;;;;;;3.90;3.70;;;11.70;99.90;;;;;;4974512;28;20563;-75
2021/01/21 02:47:56;;;;;;;5.00;4.60;;;11.70;99.90;;;;;;4974169;28;20461;-75
2021/01/21 02:50:35;;;;;;;4.33;4.00;;;11.80;99.90;;;;;;4974196;28;20425;-74
2021/01/21 02:53:04;;;;;;;3.60;3.40;;;11.80;99.90;;;;;;4973412;28;20763;-75
2021/01/21 02:55:56;;;;;;;4.57;4.07;;;11.80;99.90;;;;;;4957259;28;20490;-75
2021/01/21 02:58:45;;;;;;;4.50;4.10;;;11.80;99.90;;;;;;4957056;28;20475;-75
2021/01/21 03:01:16;;;;;;;3.53;3.33;;;11.80;99.90;;;;;;4972923;28;20407;-75
2021/01/21 03:03:48;;;;;;;4.83;3.87;;;11.80;99.90;;;;;;4972963;28;20433;-75
2021/01/21 03:06:22;;;;;;;7.00;4.30;;;11.90;99.90;;;;;;4972970;28;20465;-74
2021/01/21 03:08:49;;;;;;;4.00;3.77;;;11.80;99.90;;;;;;4956958;28;20991;-74
2021/01/21 03:11:16;;;;;;;4.20;3.90;;;11.90;99.90;;;;;;4957172;28;20411;-75
2021/01/21 03:13:53;;;;;;;4.40;3.70;;;11.90;99.90;;;;;;4973124;28;20422;-74
2021/01/21 03:16:22;;;;;;;4.30;3.90;;;11.90;99.90;;;;;;4973093;28;20538;-75
2021/01/21 03:18:51;;;;;;;4.20;3.80;;;11.90;99.90;;;;;;4972867;28;20439;-74
2021/01/21 03:21:19;;;;;;;4.10;3.80;;;11.90;99.90;;;;;;4972743;28;20465;-74
2021/01/21 03:23:51;;;;;;;4.27;3.87;;;11.90;99.90;;;;;;4973222;28;20893;-75
2021/01/21 03:26:28;;;;;;;4.70;4.40;;;11.90;99.90;;;;;;4974240;28;20428;-75
2021/01/21 03:29:04;;;;;;;3.73;3.50;;;11.90;99.90;;;;;;4972875;28;20450;-74
2021/01/21 03:31:30;;;;;;;4.40;4.00;;;12.00;99.90;;;;;;4989238;28;20983;-75
2021/01/21 03:33:57;;;;;;;4.73;4.37;;;12.00;99.90;;;;;;4940877;28;20774;-75
2021/01/21 03:36:26;;;;;;;6.77;4.50;;;12.00;99.90;;;;;;4972969;28;20986;-75
2021/01/21 03:38:56;;;;;;;4.67;3.77;;;12.00;99.90;;;;;;4988769;28;20470;-75
2021/01/21 03:41:34;;;;;;;4.37;4.07;;;12.00;99.90;;;;;;4974038;28;20469;-74
2021/01/21 03:44:27;;;;;;;4.30;4.00;;;12.00;99.90;;;;;;4934302;29;20476;-76
2021/01/21 03:46:57;;;;;;;4.60;4.30;;;12.00;99.90;;;;;;4937634;29;20441;-75
2021/01/21 03:49:52;;;;;;;4.00;3.73;;;12.00;99.90;;;;;;4937765;29;20819;-75
2021/01/21 03:52:24;;;;;;;4.43;4.13;;;12.10;99.90;;;;;;4938006;29;20412;-75
2021/01/21 03:55:01;;;;;;;4.00;3.70;;;12.10;99.90;;;;;;4953466;29;20544;-75
2021/01/21 03:57:29;;;;;;;6.00;4.00;;;12.10;99.90;;;;;;5001738;23;20590;-74
2021/01/21 04:00:11;;;;;;;3.97;3.47;;;12.10;99.90;;;;;;4976089;28;20406;-74
2021/01/21 04:02:42;;;;;;;4.33;3.67;;;12.00;99.90;;;;;;4992398;28;20407;-74
2021/01/21 04:05:20;;;;;;;4.33;4.03;;;12.10;99.90;;;;;;4960056;28;20427;-74
2021/01/21 04:07:48;;;;;;;3.63;3.43;;;12.20;99.90;;;;;;4976088;28;20403;-74
2021/01/21 04:10:14;;;;;;;3.17;2.97;;;12.20;99.90;;;;;;4960014;28;20427;-73
2021/01/21 04:13:09;;;;;;;3.73;3.43;;;12.20;99.90;;;;;;4976511;28;21014;-73
2021/01/21 04:15:38;;;;;;;3.43;3.13;;;12.20;99.90;;;;;;4959615;28;20870;-73
2021/01/21 04:18:04;;;;;;;3.37;3.07;;;12.30;99.90;;;;;;4975558;28;20447;-73
2021/01/21 04:20:49;;;;;;;4.13;3.83;;;12.20;99.90;;;;;;4975798;28;20458;-73
2021/01/21 04:23:15;;;;;;;7.27;3.77;;;12.20;99.90;;;;;;4975795;28;20433;-73
2021/01/21 04:25:41;;;;;;;3.73;3.43;;;12.20;99.90;;;;;;4959496;28;20908;-73
2021/01/21 04:28:09;;;;;;;4.97;3.13;;;12.20;99.90;;;;;;4959652;28;20455;-73
2021/01/21 04:30:39;;;;;;;2.97;2.87;;;12.20;99.90;;;;;;4975817;28;20411;-73
2021/01/21 04:33:07;;;;;;;2.60;2.40;;;12.20;99.90;;;;;;4959581;28;20994;-73
2021/01/21 04:35:33;;;;;;;3.50;3.20;;;12.10;99.90;;;;;;4959215;28;20451;-73
2021/01/21 04:38:00;;;;;;;3.77;3.47;;;12.10;99.90;;;;;;4959090;28;20439;-73
2021/01/21 04:40:35;;;;;;;4.33;3.90;;;12.20;99.90;;;;;;4976473;28;20411;-73
2021/01/21 04:43:36;;;;;;;3.97;3.77;;;12.20;99.90;;;;;;4966629;28;20430;-73
2021/01/21 04:46:11;;;;;;;3.43;3.23;;;12.10;99.90;;;;;;4960267;28;20415;-73
2021/01/21 04:48:45;;;;;;;4.50;4.00;;;12.10;99.90;;;;;;4974970;28;20525;-73
2021/01/21 04:51:15;;;;;;;5.13;3.90;;;12.00;99.90;;;;;;4975082;28;20403;-73
2021/01/21 04:53:53;;;;;;;3.70;3.40;;;12.00;99.90;;;;;;4943847;28;20522;-73
2021/01/21 04:56:38;;;;;;;7.80;3.30;;;11.90;99.90;;;;;;4975078;28;20482;-74
2021/01/21 04:59:26;;;;;;;3.70;3.40;;;11.90;99.90;;;;;;4975321;28;20438;-73
2021/01/21 05:01:55;;;;;;;4.20;3.90;;;12.00;99.90;;;;;;4958553;28;20461;-73
2021/01/21 05:04:22;;;;;;;3.57;3.27;;;11.90;99.90;;;;;;4958764;28;20410;-73
2021/01/21 05:07:00;;;;;;;3.70;3.40;;;11.90;99.90;;;;;;4975922;28;20477;-73
2021/01/21 05:09:32;;;;;;;4.20;3.90;;;11.90;99.90;;;;;;4974652;28;20440;-73
2021/01/21 05:11:59;;;;;;;3.97;3.77;;;11.90;99.90;;;;;;4958703;28;20445;-73
2021/01/21 05:14:28;;;;;;;3.77;3.50;;;11.80;99.90;;;;;;4975800;28;20990;-73
2021/01/21 05:17:20;;;;;;;4.23;3.93;;;11.70;99.90;;;;;;4974209;28;20505;-73
2021/01/21 05:19:48;;;;;;;3.10;2.90;;;11.70;99.90;;;;;;4974788;28;21023;-73
2021/01/21 05:22:40;;;;;;;6.30;2.57;;;11.60;99.90;;;;;;4975599;28;20415;-73
2021/01/21 05:25:28;;;;;;;6.10;5.77;;;11.40;99.90;;;;;;4975364;28;20419;-72
2021/01/21 05:28:13;;;;;;;3.92;3.63;;;9.90;99.90;;;;;;4975557;28;20453;-71
2021/01/21 05:31:03;;;;;;;3.95;3.75;;;8.90;99.90;;;;;;4956032;28;20223;-70
2021/01/21 05:33:39;;;;;;;3.88;3.42;;;8.30;99.90;;;;;;4985564;28;20200;-70
2021/01/21 05:36:17;;;;;;;3.35;3.20;;;7.90;99.90;;;;;;4962844;28;20754;-73
2021/01/21 05:39:07;;;;;;;3.20;3.10;;;7.60;99.90;;;;;;5006296;28;20195;-73
2021/01/21 05:42:07;;;;;;;3.80;3.60;;;7.30;99.90;;;;;;4973183;28;20245;-73
2021/01/21 05:44:53;;;;;;;2.70;2.50;;;7.10;99.90;;;;;;4973417;28;20657;-73
2021/01/21 05:47:43;;;;;;;3.53;2.97;;;6.90;99.90;;;;;;4973457;28;20731;-73
2021/01/21 05:50:09;;;;;;;3.30;3.00;;;6.70;99.90;;;;;;4961337;28;20191;-75
2021/01/21 05:52:36;;;;;;;2.55;2.38;;;6.60;99.90;;;;;;4954025;29;20191;-75
2021/01/21 05:55:03;;;;;;;2.83;2.20;;;6.60;99.90;;;;;;4964697;28;20226;-75
2021/01/21 05:57:49;;;;;;;1.98;1.88;;;6.50;99.90;;;;;;4975910;28;20245;-75
2021/01/21 06:00:17;;;;;;;3.03;1.85;;;6.40;99.90;;;;;;4969030;28;20176;-75
2021/01/21 06:02:52;;;;;;;1.80;1.70;;;6.40;99.90;;;;;;4953386;28;20214;-75
2021/01/21 06:05:39;;;;;;;3.88;2.67;;;6.40;99.90;;;;;;4960039;28;20250;-74
2021/01/21 06:08:05;;;;;;;4.18;2.63;;;6.40;99.90;;;;;;4957621;28;20211;-74
2021/01/21 06:10:34;;;;;;;2.75;2.50;;;6.40;99.90;;;;;;4973521;28;20187;-74
2021/01/21 06:13:05;;;;;;;2.50;2.40;;;6.30;99.90;;;;;;4949055;29;20187;-74
2021/01/21 06:15:32;;;;;;;2.53;2.42;;;6.30;99.90;;;;;;4955125;29;20239;-74
2021/01/21 06:17:58;;;;;;;2.25;1.70;;;6.40;99.90;;;;;;4953643;29;20212;-74
2021/01/21 06:20:44;;;;;;;2.38;2.20;;;6.30;99.90;;;;;;4953163;29;20563;-74
2021/01/21 06:23:30;;;;;;;1.90;1.80;;;6.30;99.90;;;;;;4966531;28;20180;-74
2021/01/21 06:26:20;;;;;;;2.80;1.73;;;6.20;99.90;;;;;;4970719;28;20597;-74
2021/01/21 06:28:54;;;;;;;3.70;2.17;;;6.20;99.90;;;;;;4972256;28;20257;-74
2021/01/21 06:31:20;;;;;;;4.22;2.70;;;6.20;99.90;;;;;;4973953;28;20199;-73
2021/01/21 06:33:50;;;;;;;3.05;2.10;;;6.20;99.90;;;;;;4972535;28;20601;-74
2021/01/21 06:36:19;;;;;;;2.60;2.40;;;6.20;99.90;;;;;;4972540;28;20361;-74
2021/01/21 06:38:54;;;;;;;6.70;3.00;;;6.30;99.90;;;;;;4953317;29;20568;-74
2021/01/21 06:41:25;;;;;;;2.65;2.10;;;6.20;99.90;;;;;;4955154;28;20180;-74
2021/01/21 06:43:56;;;;;;;7.90;2.10;;;6.10;99.90;;;;;;4953350;29;20308;-74
2021/01/21 06:46:22;;;;;;;3.00;2.13;;;6.10;99.90;;;;;;4962320;28;20182;-74
2021/01/21 06:48:49;;;;;;;2.42;2.15;;;6.10;99.90;;;;;;4991975;28;20232;-73
2021/01/21 06:51:16;;;;;;;3.65;2.10;;;6.10;99.90;;;;;;4978108;28;20191;-73
2021/01/21 06:53:45;;;;;;;12.95;4.45;;;6.10;99.90;;;;;;4972647;28;20212;-73
2021/01/21 06:56:12;;;;;;;5.85;2.70;;;6.10;99.90;;;;;;4972858;28;20271;-74
2021/01/21 06:58:54;;;;;;;3.97;3.15;;;6.10;99.90;;;;;;4973550;28;20226;-72
2021/01/21 07:01:32;;;;;;;2.72;1.80;;;6.00;99.90;;;;;;4985777;28;20609;-73
2021/01/21 07:04:04;;;;;;;3.75;2.30;;;6.10;99.90;;;;;;4989093;28;20182;-74
2021/01/21 07:06:52;;;;;;;6.35;2.25;;;6.10;99.90;;;;;;4979935;28;20175;-73
2021/01/21 07:09:21;;;;;;;4.30;1.88;;;6.10;99.90;;;;;;4969567;28;20211;-73
2021/01/21 07:11:47;;;;;;;6.53;4.63;;;6.00;99.90;;;;;;4972361;28;20622;-74
2021/01/21 07:14:22;;;;;;;8.63;2.70;;;6.10;99.90;;;;;;4953857;28;20226;-74
2021/01/21 07:17:01;;;;;;;4.82;3.15;;;6.10;99.90;;;;;;4946590;28;20202;-74
2021/01/21 07:19:29;;;;;;;3.25;3.05;;;6.10;99.90;;;;;;4952838;28;20214;-73
2021/01/21 07:21:57;;;;;;;3.47;2.33;;;6.20;99.90;;;;;;4959679;28;20263;-73
2021/01/21 07:24:26;;;;;;;3.55;2.80;;;6.20;99.90;;;;;;4977538;28;20558;-73
2021/01/21 07:26:53;;;;;;;3.63;2.80;;;6.20;99.90;;;;;;4974968;28;20211;-74
2021/01/21 07:29:21;;;;;;;6.75;3.30;;;6.20;99.90;;;;;;4970225;28;20696;-73
2021/01/21 07:31:56;;;;;;;5.53;3.15;;;6.20;99.90;;;;;;4977110;28;20193;-73
2021/01/21 07:34:29;;;;;;;7.68;3.50;;;6.20;99.90;;;;;;4976429;28;20189;-74
2021/01/21 07:37:27;;;;;;;5.75;4.00;;;6.20;99.90;;;;;;4969992;28;20523;-74
2021/01/21 07:39:58;;;;;;;6.30;3.05;;;6.20;99.90;;;;;;4958009;28;20204;-74
2021/01/21 07:42:33;;;;;;;6.15;2.63;;;6.20;99.90;;;;;;4957857;28;20205;-74
2021/01/21 07:45:03;;;;;;;3.95;3.67;;;6.20;99.90;;;;;;4972347;28;20547;-74
2021/01/21 07:47:37;;;;;;;6.97;3.28;;;6.10;99.90;;;;;;4972131;28;20195;-74
2021/01/21 07:50:33;;;;;;;5.30;2.60;;;6.10;99.90;;;;;;4956674;28;20199;-73
2021/01/21 07:53:01;;;;;;;5.28;1.90;;;6.10;99.90;;;;;;4957454;28;20191;-75
2021/01/21 07:55:34;;;;;;;3.22;2.75;;;6.20;99.90;;;;;;4954318;28;20210;-75
2021/01/21 07:58:19;;;;;;;3.83;2.17;;;6.10;99.90;;;;;;4987855;28;20230;-75
2021/01/21 08:00:50;;;;;;;3.35;2.17;;;6.10;99.90;;;;;;4979056;28;20191;-75
2021/01/21 08:03:46;;;;;;;2.83;2.25;;;6.10;99.90;;;;;;4980746;28;20603;-75
2021/01/21 08:06:17;;;;;;;3.70;2.20;;;6.10;99.90;;;;;;4992107;28;20221;-75
2021/01/21 08:08:50;;;;;;;4.28;2.78;;;6.10;99.90;;;;;;4975046;28;20218;-75
2021/01/21 08:11:21;;;;;;;4.72;2.88;;;6.10;99.90;;;;;;4975246;28;20266;-75
2021/01/21 08:13:48;;;;;;;8.35;4.10;;;6.10;99.90;;;;;;4983783;28;20199;-74
2021/01/21 08:16:17;;;;;;;6.60;3.50;;;6.00;99.90;;;;;;4993429;28;20210;-73
2021/01/21 08:18:47;;;;;;;4.32;2.97;;;6.10;99.90;;;;;;4974737;28;20199;-74
2021/01/21 08:21:26;;;;;;;3.55;2.60;;;6.00;99.90;;;;;;4990232;28;20208;-75
2021/01/21 08:23:59;;;;;;;6.65;2.80;;;6.00;99.90;;;;;;4984295;28;20588;-75
2021/01/21 08:26:29;;;;;;;6.85;3.50;;;6.00;99.90;;;;;;4987041;28;20197;-75
2021/01/21 08:28:56;;;;;;;10.13;2.83;;;6.00;99.90;;;;;;4992458;28;20253;-75
2021/01/21 08:31:41;;;;;;;4.10;2.90;;;6.00;99.90;;;;;;4961483;28;20199;-74
2021/01/21 08:34:17;;;;;;;3.90;2.38;;;6.00;99.90;;;;;;4969136;28;21024;-73
2021/01/21 08:36:48;;;;;;;5.72;3.38;;;6.10;99.90;;;;;;4993864;28;20204;-73
2021/01/21 08:39:15;;;;;;;4.03;2.72;;;6.10;99.90;;;;;;4985797;28;20226;-73
2021/01/21 08:41:44;;;;;;;7.97;2.53;;;6.20;99.90;;;;;;4983622;28;20655;-73
2021/01/21 08:44:17;;;;;;;11.98;3.63;;;6.20;99.90;;;;;;4986497;28;20194;-73
2021/01/21 08:46:59;;;;;;;2.20;2.00;;;6.30;99.90;;;;;;4980261;28;20183;-72
2021/01/21 08:49:29;;;;;;;4.80;2.60;;;6.40;99.90;;;;;;4975585;28;20707;-73
2021/01/21 08:52:09;;;;;;;6.57;3.80;;;6.40;99.90;;;;;;4993283;28;20280;-73
2021/01/21 08:54:35;;;;;;;9.65;4.45;;;6.40;99.90;;;;;;4987747;28;20656;-72
2021/01/21 08:57:11;;;;;;;5.90;2.47;;;6.50;99.90;;;;;;4991928;28;20234;-72
2021/01/21 08:59:39;;;;;;;3.40;2.15;;;6.50;99.90;;;;;;4974718;28;20222;-73
2021/01/21 09:02:05;;;;;;;8.32;3.60;;;6.60;99.90;;;;;;4975428;28;20519;-73
2021/01/21 09:04:36;;;;;;;6.70;3.25;;;6.70;99.90;;;;;;4975501;28;20202;-72
2021/01/21 09:07:04;;;;;;;9.80;3.95;;;6.80;99.90;;;;;;4977258;28;20221;-74
2021/01/21 09:09:40;;;;;;;5.32;3.22;;;6.80;99.90;;;;;;4977245;28;20214;-75
2021/01/21 09:12:15;;;;;;;8.18;3.53;;;6.90;99.90;;;;;;4974082;28;20233;-75
2021/01/21 09:14:44;;;;;;;4.70;3.97;;;7.00;99.90;;;;;;4992279;28;20273;-74
2021/01/21 09:17:15;;;;;;;6.88;2.80;;;7.00;99.90;;;;;;4982907;28;20542;-75
2021/01/21 09:19:47;;;;;;;7.97;3.50;;;7.10;99.90;;;;;;4982044;28;20215;-75
2021/01/21 09:22:16;;;;;;;6.55;3.00;;;7.10;99.90;;;;;;4966407;28;20237;-76
2021/01/21 09:25:02;;;;;;;9.90;3.30;;;7.20;99.90;;;;;;4980261;28;20576;-75
2021/01/21 09:27:38;;;;;;;4.10;3.10;;;7.20;99.90;;;;;;4967809;28;20199;-75
2021/01/21 09:30:11;;;;;;;7.03;2.72;;;7.30;99.90;;;;;;4962932;28;20554;-75
2021/01/21 09:32:42;;;;;;;5.95;2.75;;;7.30;99.90;;;;;;4976799;28;20277;-75
2021/01/21 09:35:14;;;;;;;3.70;3.30;;;7.40;99.90;;;;;;4991642;28;20233;-76
2021/01/21 09:37:59;;;;;;;6.47;4.50;;;7.40;99.90;;;;;;4975811;28;20184;-74
2021/01/21 09:40:28;;;;;;;3.55;2.90;;;7.40;99.90;;;;;;4974938;28;20651;-75
2021/01/21 09:42:56;;;;;;;5.75;3.20;;;7.40;99.90;;;;;;4973960;28;20291;-75
2021/01/21 09:45:23;;;;;;;5.05;4.13;;;7.50;99.90;;;;;;4974482;28;20183;-75
2021/01/21 09:47:50;;;;;;;7.47;3.38;;;7.50;99.90;;;;;;4987370;28;20198;-75
2021/01/21 09:50:26;;;;;;;3.45;3.15;;;7.50;99.90;;;;;;4977711;28;20648;-76
2021/01/21 09:52:53;;;;;;;4.30;3.65;;;7.60;99.90;;;;;;4974652;28;20640;-76
2021/01/21 09:55:21;;;;;;;7.60;4.15;;;7.60;99.90;;;;;;4973380;28;20207;-76
2021/01/21 09:57:48;;;;;;;4.60;4.20;;;7.70;99.90;;;;;;4974015;28;20590;-74
2021/01/21 10:00:14;;;;;;;8.65;3.78;;;7.70;99.90;;;;;;4973093;28;20164;-74
2021/01/21 10:02:43;;;;;;;3.70;3.30;;;7.70;99.90;;;;;;4973232;28;20171;-74
2021/01/21 10:05:09;;;;;;;8.70;4.33;;;7.70;99.90;;;;;;4973292;28;20247;-75
2021/01/21 10:07:38;;;;;;;5.05;3.70;;;7.80;99.90;;;;;;4986181;28;20436;-75
2021/01/21 10:10:07;;;;;;;6.85;4.40;;;8.00;99.90;;;;;;4994199;28;20207;-74
2021/01/21 10:12:33;;;;;;;6.68;3.30;;;8.10;99.90;;;;;;4992783;28;20167;-75
2021/01/21 10:15:02;;;;;;;4.00;3.35;;;8.20;99.90;;;;;;4993729;28;20234;-75
2021/01/21 10:17:28;;;;;;;8.07;3.70;;;8.20;99.90;;;;;;4992570;28;20543;-75
2021/01/21 10:19:54;;;;;;;6.38;3.75;;;8.10;99.90;;;;;;4976297;28;20213;-75
2021/01/21 10:22:20;;;;;;;6.18;3.60;;;8.20;99.90;;;;;;4994106;28;20170;-75
2021/01/21 10:24:47;;;;;;;3.85;3.55;;;8.20;99.90;;;;;;4993387;28;20163;-74
2021/01/21 10:27:16;;;;;;;6.05;3.72;;;8.30;99.90;;;;;;4960638;28;20215;-75
2021/01/21 10:29:42;;;;;;;6.90;3.63;;;8.30;99.90;;;;;;4961592;28;20544;-75
2021/01/21 10:32:11;;;;;;;5.78;3.60;;;8.40;99.90;;;;;;4982096;28;20205;-75
2021/01/21 10:34:37;;;;;;;6.88;3.90;;;8.50;99.90;;;;;;4992199;28;20167;-74
2021/01/21 10:37:06;;;;;;;11.35;4.65;;;8.50;99.90;;;;;;4976299;28;20186;-74
2021/01/21 10:39:34;;;;;;;5.20;3.80;;;8.60;99.90;;;;;;4980622;28;20207;-76
2021/01/21 10:42:01;;;;;;;5.07;3.80;;;8.70;99.90;;;;;;4970153;28;20183;-76
2021/01/21 10:44:29;;;;;;;10.50;5.00;;;8.70;99.90;;;;;;4977926;28;20460;-76
2021/01/21 10:46:55;;;;;;;4.97;4.23;;;8.70;99.90;;;;;;4936263;28;20350;-76
2021/01/21 10:49:21;;;;;;;5.03;4.60;;;8.70;99.90;;;;;;4970061;28;20532;-77
2021/01/21 10:51:47;;;;;;;10.82;5.03;;;8.80;99.90;;;;;;4987413;28;20752;-76
2021/01/21 10:54:16;;;;;;;9.27;5.40;;;8.70;99.90;;;;;;4962651;28;20219;-76
2021/01/21 10:56:44;;;;;;;5.75;4.45;;;8.80;99.90;;;;;;4954827;28;20569;-76
2021/01/21 10:59:13;;;;;;;6.07;5.00;;;8.80;99.90;;;;;;4973136;28;20691;-77
2021/01/21 11:01:43;;;;;;;5.07;4.57;;;8.80;99.90;;;;;;4969722;28;20258;-77
2021/01/21 11:04:12;;;;;;;6.43;5.63;;;8.80;99.90;;;;;;4982015;28;20367;-76
2021/01/21 11:06:38;;;;;;;6.43;5.10;;;8.70;99.90;;;;;;4970168;28;20191;-76
2021/01/21 11:09:04;;;;;;;5.10;4.80;;;8.70;99.90;;;;;;4957031;28;20279;-77
2021/01/21 11:11:33;;;;;;;5.10;4.70;;;8.70;99.90;;;;;;4980140;28;20449;-76
2021/01/21 11:14:01;;;;;;;5.32;4.78;;;8.70;99.90;;;;;;4953171;28;21034;-76
2021/01/21 11:16:27;;;;;;;9.52;5.53;;;8.70;99.90;;;;;;4969891;28;20692;-76
2021/01/21 11:18:53;;;;;;;5.30;4.90;;;8.60;99.90;;;;;;4970228;28;20579;-76
2021/01/21 11:21:19;;;;;;;6.07;5.47;;;8.60;99.90;;;;;;4975259;28;20199;-76
2021/01/21 11:23:45;;;;;;;5.77;5.23;;;8.60;99.90;;;;;;4985637;28;20442;-76
2021/01/21 11:26:11;;;;;;;6.50;5.40;;;8.70;99.90;;;;;;4979455;28;20488;-76
2021/01/21 11:28:37;;;;;;;5.57;4.50;;;8.70;99.90;;;;;;4962597;28;20546;-77
2021/01/21 11:31:04;;;;;;;5.80;5.30;;;8.70;99.90;;;;;;4971857;28;20588;-78
2021/01/21 11:33:32;;;;;;;8.02;5.22;;;8.70;99.90;;;;;;4988448;28;20437;-77
2021/01/21 11:35:58;;;;;;;9.20;5.47;;;8.60;99.90;;;;;;4992266;28;20608;-76
2021/01/21 11:38:24;;;;;;;8.57;6.05;;;8.60;99.90;;;;;;4993598;28;20437;-79
2021/01/21 11:40:51;;;;;;;5.23;4.83;;;8.70;99.90;;;;;;4975849;28;20679;-78
2021/01/21 11:43:17;;;;;;;8.35;5.65;;;8.70;99.90;;;;;;4980187;28;20931;-76
2021/01/21 11:45:45;;;;;;;5.23;4.83;;;8.70;99.90;;;;;;4982518;28;20190;-79
2021/01/21 11:48:11;;;;;;;4.80;4.50;;;8.80;99.90;;;;;;4984283;28;20479;-76
2021/01/21 11:50:39;;;;;;;4.50;4.20;;;8.90;99.90;;;;;;4978122;28;20190;-77
2021/01/21 11:53:06;;;;;;;5.88;4.30;;;8.90;99.90;;;;;;4972253;28;21584;-78
2021/01/21 11:55:32;;;;;;;7.10;6.40;;;8.90;99.90;;;;;;4984385;28;20227;-75
2021/01/21 11:57:58;;;;;;;7.05;5.43;;;8.90;99.90;;;;;;5002211;23;20321;-79
2021/01/21 12:00:24;;;;;;;5.27;4.97;;;8.80;99.90;;;;;;5002786;28;20301;-79
2021/01/21 12:02:51;;;;;;;5.97;4.70;;;8.90;99.90;;;;;;4992241;28;21005;-80
2021/01/21 12:05:23;;;;;;;6.13;5.32;;;8.80;99.90;;;;;;4990363;28;20290;-80
2021/01/21 12:07:49;;;;;;;6.22;5.70;;;8.70;99.90;;;;;;4996666;28;20412;-79
2021/01/21 12:10:19;;;;;;;6.97;5.13;;;8.80;99.90;;;;;;4997429;28;20225;-79
2021/01/21 12:12:48;;;;;;;4.85;4.45;;;8.70;99.90;;;;;;4997863;28;20654;-80
2021/01/21 12:15:17;;;;;;;5.40;5.00;;;8.90;99.90;;;;;;5014117;28;20217;-83
2021/01/21 12:17:43;;;;;;;5.10;4.60;;;8.90;99.90;;;;;;4995232;28;20508;-83
2021/01/21 12:20:10;;;;;;;9.73;5.77;;;9.00;99.90;;;;;;5002448;28;20445;-82
2021/01/21 12:22:37;;;;;;;5.82;5.18;;;9.00;99.90;;;;;;4987649;28;20768;-81
2021/01/21 12:25:05;;;;;;;5.43;4.93;;;9.00;99.90;;;;;;5006198;28;20213;-84
2021/01/21 12:27:31;;;;;;;7.40;5.13;;;9.00;99.90;;;;;;5003706;28;20190;-79
2021/01/21 12:29:57;;;;;;;4.57;4.27;;;9.10;99.90;;;;;;5005424;28;20804;-82
2021/01/21 12:32:23;;;;;;;5.40;5.07;;;9.10;99.90;;;;;;4993098;28;20541;-82
2021/01/21 12:34:49;;;;;;;4.50;4.10;;;9.30;99.90;;;;;;5005645;28;20346;-81
2021/01/21 12:37:15;;;;;;;5.93;4.40;;;9.20;99.90;;;;;;4998946;28;20441;-82
2021/01/21 12:39:44;;;;;;;9.80;5.50;;;9.30;99.90;;;;;;5002982;28;20443;-80
2021/01/21 12:42:13;;;;;;;5.90;5.20;;;9.20;99.90;;;;;;4994987;28;20217;-82
2021/01/21 12:44:40;;;;;;;5.57;5.18;;;9.10;99.90;;;;;;4997370;28;20429;-80
2021/01/21 12:47:08;;;;;;;5.90;5.33;;;9.10;99.90;;;;;;5000859;28;20190;-81
2021/01/21 12:49:35;;;;;;;11.00;8.03;;;9.10;99.90;;;;;;5001273;28;20453;-79
2021/01/21 12:52:01;;;;;;;6.25;5.65;;;9.20;99.90;;;;;;5013236;28;20441;-79
2021/01/21 12:59:10;;;;;;;4.80;4.50;;;9.30;99.90;;;;;;4980877;28;20797;-79
2021/01/21 13:01:39;;;;;;;6.10;5.60;;;9.20;99.90;;;;;;4991740;28;20198;-78
2021/01/21 13:04:10;;;;;;;5.50;5.18;;;9.20;99.90;;;;;;4998405;28;20437;-80
2021/01/21 13:07:20;;;;;;;7.00;6.50;;;9.20;99.90;;;;;;5007335;28;20205;-80
2021/01/21 13:09:48;;;;;;;5.80;5.40;;;9.10;99.90;;;;;;4998240;28;20452;-81
2021/01/21 13:12:14;;;;;;;6.90;6.10;;;9.10;99.90;;;;;;4999568;28;20510;-81
2021/01/21 13:15:10;;;;;;;8.23;5.33;;;9.10;99.90;;;;;;5000674;28;20204;-82
2021/01/21 13:17:37;;;;;;;11.10;5.13;;;9.10;99.90;;;;;;4971654;28;20860;-78
2021/01/21 13:20:12;;;;;;;5.53;5.20;;;9.00;99.90;;;;;;5012084;28;20964;-81
2021/01/21 13:22:42;;;;;;;6.60;6.13;;;9.00;99.90;;;;;;5005624;28;20436;-81